createdAt,value
2019-03-01T00:01:59.750Z,101093.66
2019-03-01T00:05:00.629Z,101090.09
2019-03-01T00:11:31.538Z,101078.02
2019-03-01T00:14:36.266Z,101079.92
2019-03-01T00:17:48.193Z,101075.72
2019-03-01T00:20:42.615Z,101070.92
2019-03-01T00:23:47.786Z,101072.53
2019-03-01T00:27:03.673Z,101068.33
2019-03-01T00:29:47.916Z,101070.28
2019-03-01T00:33:00.437Z,101061.58
2019-03-01T00:35:56.133Z,101062.41
2019-03-01T00:38:54.290Z,101059.59
2019-03-01T00:41:43.477Z,101052.34
2019-03-01T00:44:44.062Z,101052.94
2019-03-01T00:47:13.541Z,101056.20
2019-03-01T00:49:42.816Z,101048.28
2019-03-01T00:52:12.438Z,101041.48
2019-03-01T00:54:41.767Z,101039.31
2019-03-01T00:57:11.066Z,101047.55
2019-03-01T00:59:40.357Z,101032.52
2019-03-01T01:02:09.615Z,101038.53
2019-03-01T01:04:38.918Z,101034.11
2019-03-01T01:07:08.231Z,101030.85
2019-03-01T01:09:37.529Z,101026.13
2019-03-01T01:12:06.971Z,101029.81
2019-03-01T01:14:36.231Z,101025.12
2019-03-01T01:17:05.573Z,101020.75
2019-03-01T01:19:34.838Z,101025.59
2019-03-01T01:22:04.223Z,101022.52
2019-03-01T01:24:33.533Z,101021.14
2019-03-01T01:27:02.822Z,101016.26
2019-03-01T01:29:32.094Z,101011.36
2019-03-01T01:32:01.340Z,101018.52
2019-03-01T01:34:30.660Z,101010.63
2019-03-01T01:36:59.986Z,101013.17
2019-03-01T01:39:29.268Z,101008.80
2019-03-01T01:41:58.752Z,101002.63
2019-03-01T01:44:27.990Z,100998.05
2019-03-01T01:46:57.306Z,101000.11
2019-03-01T01:49:26.555Z,100990.66
2019-03-01T01:51:55.855Z,100995.07
2019-03-01T01:54:25.084Z,100993.17
2019-03-01T01:56:54.408Z,100991.16
2019-03-01T01:59:23.645Z,100986.63
2019-03-01T02:01:52.978Z,100982.59
2019-03-01T02:04:22.217Z,100982.27
2019-03-01T02:06:51.479Z,100978.27
2019-03-01T02:09:26.302Z,100978.69
2019-03-01T02:11:55.926Z,100975.56
2019-03-01T02:14:25.212Z,100980.66
2019-03-01T02:16:54.498Z,100980.75
2019-03-01T02:19:23.760Z,100979.03
2019-03-01T02:21:53.087Z,100974.79
2019-03-01T02:24:22.352Z,100979.04
2019-03-01T02:26:53.088Z,100975.14
2019-03-01T02:29:22.376Z,100979.13
2019-03-01T02:31:59.181Z,100973.45
2019-03-01T02:34:28.443Z,100974.29
2019-03-01T02:50:31.645Z,100957.88
2019-03-01T02:53:30.566Z,100961.88
2019-03-01T02:56:32.503Z,100953.00
2019-03-01T02:59:31.705Z,100956.18
2019-03-01T03:02:33.961Z,100948.63
2019-03-01T03:05:35.783Z,100949.09
2019-03-01T03:08:31.794Z,100948.63
2019-03-01T03:11:33.977Z,100946.19
2019-03-01T03:14:32.898Z,100942.30
2019-03-01T03:17:32.008Z,100937.98
2019-03-01T03:20:34.097Z,100935.29
2019-03-01T03:23:33.250Z,100935.39
2019-03-01T03:26:32.398Z,100935.05
2019-03-01T03:29:34.408Z,100938.89
2019-03-01T04:08:34.505Z,100942.07
2019-03-01T04:11:33.755Z,100945.82
2019-03-01T04:14:32.801Z,100942.48
2019-03-01T04:17:31.708Z,100940.70
2019-03-01T04:20:33.916Z,100935.91
2019-03-01T04:43:29.532Z,100938.08
2019-03-01T04:59:29.575Z,100942.38
2019-03-01T05:17:34.154Z,100949.00
2019-03-01T05:20:33.052Z,100945.67
2019-03-01T05:23:31.991Z,100946.95
2019-03-01T05:26:31.070Z,100953.77
2019-03-01T05:29:29.954Z,100955.14
2019-03-01T05:31:59.209Z,100951.91
2019-03-01T05:34:28.485Z,100961.34
2019-03-01T05:36:57.804Z,100952.56
2019-03-01T05:39:32.997Z,100955.85
2019-03-01T05:42:02.293Z,100953.03
2019-03-01T05:44:31.569Z,100954.35
2019-03-01T05:47:00.847Z,100958.90
2019-03-01T05:49:30.110Z,100949.34
2019-03-01T05:51:59.340Z,100950.09
2019-03-01T05:54:28.603Z,100957.84
2019-03-01T05:56:57.842Z,100960.22
2019-03-01T05:59:28.691Z,100969.31
2019-03-01T06:02:37.936Z,100968.77
2019-03-01T06:05:17.602Z,100976.54
2019-03-01T06:08:22.201Z,100981.31
2019-03-01T06:11:19.734Z,100978.52
2019-03-01T06:14:18.441Z,100986.53
2019-03-01T06:17:14.403Z,100989.07
2019-03-01T06:20:11.666Z,100992.03
2019-03-01T06:23:11.669Z,100997.10
2019-03-01T06:26:15.302Z,101005.70
2019-03-01T06:29:00.267Z,101012.28
2019-03-01T06:31:56.749Z,101007.16
2019-03-01T06:34:42.315Z,101017.16
2019-03-01T06:37:22.676Z,101009.59
2019-03-01T06:40:17.365Z,101010.98
2019-03-01T06:43:01.387Z,101018.69
2019-03-01T06:46:03.267Z,101015.42
2019-03-01T06:48:51.482Z,101021.31
2019-03-01T06:57:47.670Z,101030.00
2019-03-01T07:00:39.447Z,101018.97
2019-03-01T07:03:32.269Z,101023.12
2019-03-01T07:06:34.242Z,101025.89
2019-03-01T07:09:33.034Z,101031.89
2019-03-01T07:12:32.054Z,101027.52
2019-03-01T07:15:34.100Z,101039.04
2019-03-01T07:18:33.324Z,101037.74
2019-03-01T07:21:32.111Z,101052.30
2019-03-01T07:24:01.416Z,101071.33
2019-03-01T07:26:33.681Z,101066.73
2019-03-01T07:29:32.509Z,101072.61
2019-03-01T07:32:31.713Z,101066.38
2019-03-01T07:38:32.841Z,101079.95
2019-03-01T07:41:32.080Z,101068.33
2019-03-01T07:56:36.951Z,101110.83
2019-03-01T07:59:37.925Z,101133.04
2019-03-01T08:02:30.351Z,101131.72
2019-03-01T08:07:55.716Z,101140.33
2019-03-01T08:10:32.654Z,101145.27
2019-03-01T08:15:48.760Z,101154.58
2019-03-01T08:18:30.259Z,101167.14
2019-03-01T08:23:46.513Z,101166.00
2019-03-01T08:29:34.042Z,101170.53
2019-03-01T08:32:33.258Z,101172.09
2019-03-01T08:35:32.412Z,101166.05
2019-03-01T08:38:33.305Z,101175.25
2019-03-01T08:41:32.602Z,101177.00
2019-03-01T08:44:31.506Z,101185.91
2019-03-01T08:47:33.703Z,101180.97
2019-03-01T08:50:32.848Z,101192.69
2019-03-01T08:53:31.803Z,101190.42
2019-03-01T08:56:34.114Z,101203.00
2019-03-01T08:59:33.268Z,101214.40
2019-03-01T09:02:32.202Z,101215.73
2019-03-01T09:05:34.009Z,101210.80
2019-03-01T09:11:32.534Z,101220.05
2019-03-01T09:14:01.827Z,101214.27
2019-03-01T09:16:34.156Z,101228.84
2019-03-01T09:19:33.188Z,101231.94
2019-03-01T09:22:33.714Z,101235.24
2019-03-01T09:25:32.743Z,101236.86
2019-03-01T09:28:32.742Z,101238.84
2019-03-01T09:31:02.636Z,101240.37
2019-03-01T09:33:34.708Z,101248.24
2019-03-01T09:36:40.478Z,101244.63
2019-03-01T09:39:32.642Z,101250.77
2019-03-01T09:44:49.107Z,101258.26
2019-03-01T09:47:36.822Z,101267.95
2019-03-01T09:50:34.263Z,101262.72
2019-03-01T09:53:34.128Z,101262.69
2019-03-01T09:59:37.346Z,101272.36
2019-03-01T10:02:33.283Z,101278.06
2019-03-01T10:08:34.631Z,101285.98
2019-03-01T10:11:33.575Z,101289.45
2019-03-01T10:14:02.950Z,101295.61
2019-03-01T10:16:35.339Z,101301.77
2019-03-01T10:19:04.634Z,101304.44
2019-03-01T10:21:33.920Z,101307.93
2019-03-01T10:24:03.213Z,101315.84
2019-03-01T10:26:32.547Z,101314.52
2019-03-01T10:29:01.872Z,101313.20
2019-03-01T10:31:31.126Z,101324.56
2019-03-01T10:34:00.372Z,101322.88
2019-03-01T10:36:29.652Z,101317.59
2019-03-01T10:38:58.985Z,101321.50
2019-03-01T10:41:28.307Z,101333.84
2019-03-01T10:43:57.600Z,101336.02
2019-03-01T10:46:26.924Z,101332.08
2019-03-01T10:48:56.177Z,101334.73
2019-03-01T10:51:25.494Z,101342.64
2019-03-01T10:53:54.805Z,101344.73
2019-03-01T10:56:24.068Z,101348.67
2019-03-01T10:58:53.368Z,101354.69
2019-03-01T11:01:22.660Z,101357.80
2019-03-01T11:03:51.953Z,101343.47
2019-03-01T11:06:21.259Z,101362.19
2019-03-01T11:16:31.463Z,101364.09
2019-03-01T12:14:30.475Z,101452.06
2019-03-01T12:28:30.353Z,101475.41
2019-03-01T13:22:30.807Z,101497.47
2019-03-01T13:50:30.602Z,101517.05
2019-03-01T14:11:32.272Z,101510.91
2019-03-01T14:14:31.564Z,101501.57
2019-03-01T14:21:33.059Z,101513.18
2019-03-01T14:28:29.497Z,101523.00
2019-03-01T14:58:49.036Z,101539.09
2019-03-01T15:01:26.855Z,101540.19
2019-03-01T15:03:54.719Z,101540.84
2019-03-01T15:06:24.017Z,101537.48
2019-03-01T15:08:53.432Z,101542.53
2019-03-01T15:11:23.399Z,101548.48
2019-03-01T15:13:53.960Z,101557.63
2019-03-01T15:16:23.276Z,101558.48
2019-03-01T15:18:52.537Z,101562.21
2019-03-01T15:21:21.879Z,101560.69
2019-03-01T15:31:31.651Z,101564.11
2019-03-01T15:44:32.508Z,101573.16
2019-03-01T15:47:31.771Z,101586.62
2019-03-01T15:50:34.144Z,101598.77
2019-03-01T16:04:33.628Z,101604.53
2019-03-01T16:17:29.393Z,101636.99
2019-03-01T16:20:31.684Z,101652.34
2019-03-01T16:27:31.510Z,101664.94
2019-03-01T16:30:33.486Z,101656.24
2019-03-01T16:40:32.549Z,101667.33
2019-03-01T17:04:32.686Z,101661.34
2019-03-01T17:18:29.549Z,101679.41
2019-03-01T17:21:31.880Z,101677.70
2019-03-01T17:24:33.954Z,101687.48
2019-03-01T17:45:33.317Z,101686.38
2019-03-01T17:48:32.377Z,101680.56
2019-03-01T17:51:31.610Z,101695.05
2019-03-01T18:06:34.405Z,101713.48
2019-03-01T18:09:33.622Z,101728.67
2019-03-01T18:12:32.566Z,101730.25
2019-03-01T18:29:30.448Z,101725.05
2019-03-01T18:36:31.561Z,101723.53
2019-03-01T18:39:03.773Z,101718.47
2019-03-01T18:41:31.861Z,101723.55
2019-03-01T18:44:30.590Z,101726.30
2019-03-01T18:47:00.366Z,101725.14
2019-03-01T18:49:29.652Z,101732.55
2019-03-01T18:52:31.541Z,101732.92
2019-03-01T18:57:47.675Z,101730.59
2019-03-01T19:00:25.544Z,101722.75
2019-03-01T19:02:54.935Z,101732.33
2019-03-01T19:05:36.620Z,101732.77
2019-03-01T19:08:36.405Z,101736.27
2019-03-01T19:11:34.672Z,101743.41
2019-03-01T19:14:03.233Z,101740.19
2019-03-01T19:16:32.552Z,101745.91
2019-03-01T19:19:01.914Z,101745.77
2019-03-01T19:21:31.254Z,101735.97
2019-03-01T19:24:00.636Z,101737.28
2019-03-01T19:26:29.960Z,101735.63
2019-03-01T19:29:02.696Z,101739.64
2019-03-01T19:31:30.248Z,101735.31
2019-03-01T19:33:59.637Z,101732.17
2019-03-01T19:36:28.921Z,101723.57
2019-03-01T19:42:37.966Z,101729.63
2019-03-01T19:45:34.098Z,101730.16
2019-03-01T19:48:34.497Z,101724.55
2019-03-01T19:51:33.780Z,101721.77
2019-03-01T19:54:35.674Z,101725.13
2019-03-01T19:57:33.623Z,101722.58
2019-03-01T20:00:32.509Z,101722.63
2019-03-01T20:03:31.729Z,101741.09
2019-03-01T20:06:33.833Z,101737.67
2019-03-01T20:09:32.851Z,101742.98
2019-03-01T20:12:32.117Z,101733.69
2019-03-01T20:15:34.382Z,101726.25
2019-03-01T20:18:33.341Z,101731.50
2019-03-01T20:21:32.334Z,101722.42
2019-03-01T20:24:31.488Z,101722.42
2019-03-01T20:27:35.506Z,101733.88
2019-03-01T20:30:31.697Z,101736.61
2019-03-01T20:33:33.840Z,101729.64
2019-03-01T20:36:32.791Z,101733.14
2019-03-01T20:44:36.018Z,101736.28
2019-03-01T20:47:32.259Z,101739.82
2019-03-01T20:50:36.418Z,101737.69
2019-03-01T20:53:32.074Z,101741.55
2019-03-01T20:56:34.135Z,101740.80
2019-03-01T20:59:33.054Z,101739.01
2019-03-01T21:06:34.050Z,101743.16
2019-03-01T21:09:32.958Z,101735.16
2019-03-01T21:12:33.460Z,101735.17
2019-03-01T21:15:34.609Z,101736.36
2019-03-01T21:18:34.096Z,101740.14
2019-03-01T21:21:33.944Z,101743.85
2019-03-01T21:30:39.871Z,101743.85
2019-03-01T21:33:32.769Z,101749.42
2019-03-01T21:36:30.829Z,101750.89
2019-03-01T21:39:32.723Z,101742.05
2019-03-01T21:42:31.676Z,101746.05
2019-03-01T21:45:30.558Z,101745.14
2019-03-01T21:48:32.796Z,101740.48
2019-03-01T21:51:31.891Z,101738.77
2019-03-01T21:54:34.168Z,101737.92
2019-03-01T21:57:33.073Z,101733.74
2019-03-01T22:00:31.188Z,101738.32
2019-03-01T22:03:32.936Z,101744.47
2019-03-01T22:06:31.962Z,101740.43
2019-03-01T22:09:33.928Z,101741.55
2019-03-01T22:12:32.793Z,101741.41
2019-03-01T22:15:32.101Z,101744.12
2019-03-01T22:18:31.174Z,101742.98
2019-03-01T22:21:33.064Z,101749.07
2019-03-01T22:24:34.126Z,101749.81
2019-03-01T22:27:32.751Z,101756.75
2019-03-01T22:30:31.711Z,101758.42
2019-03-01T22:33:33.729Z,101766.70
2019-03-01T22:36:32.676Z,101755.98
2019-03-01T22:39:31.623Z,101753.48
2019-03-01T22:42:33.626Z,101758.38
2019-03-01T22:45:32.847Z,101753.80
2019-03-01T22:48:32.038Z,101756.03
2019-03-01T23:01:32.730Z,101740.44
2019-03-01T23:04:30.388Z,101747.03
2019-03-01T23:07:32.552Z,101736.55
2019-03-01T23:10:31.415Z,101735.66
2019-03-01T23:13:33.303Z,101735.98
2019-03-01T23:16:32.121Z,101735.03
2019-03-01T23:29:32.942Z,101730.59
2019-03-01T23:34:48.935Z,101730.40
2019-03-01T23:37:18.240Z,101723.06
2019-03-01T23:39:48.547Z,101717.52
2019-03-01T23:42:20.875Z,101729.36
2019-03-01T23:44:48.949Z,101720.79
2019-03-01T23:47:18.267Z,101724.91
2019-03-01T23:49:47.547Z,101720.43
2019-03-01T23:52:19.564Z,101726.22
